createdAt,value
2022-10-16T00:03:02.092Z,15.60
2022-10-16T00:08:03.978Z,15.50
2022-10-16T00:13:05.748Z,15.50
2022-10-16T00:18:07.440Z,15.40
2022-10-16T00:23:09.184Z,15.30
2022-10-16T00:28:10.885Z,15.20
2022-10-16T00:33:12.517Z,15.50
2022-10-16T00:38:14.227Z,15.70
2022-10-16T00:43:34.011Z,15.90
2022-10-16T00:48:35.656Z,16.10
2022-10-16T00:53:37.902Z,16.00
2022-10-16T00:58:39.699Z,15.90
2022-10-16T01:03:41.489Z,15.80
2022-10-16T01:09:09.395Z,15.80
2022-10-16T01:14:20.280Z,15.70
2022-10-16T01:19:44.867Z,15.70
2022-10-16T01:24:50.597Z,15.70
2022-10-16T01:30:08.259Z,15.60
2022-10-16T01:35:14.739Z,15.60
2022-10-16T01:40:20.431Z,15.50
2022-10-16T01:45:23.101Z,15.40
2022-10-16T01:50:25.460Z,15.40
2022-10-16T01:55:34.866Z,15.40
2022-10-16T02:00:41.081Z,15.30
2022-10-16T02:05:49.419Z,15.30
2022-10-16T02:10:51.344Z,15.20
2022-10-16T02:15:53.176Z,15.10
2022-10-16T02:21:11.585Z,15.20
2022-10-16T02:26:17.948Z,15.30
2022-10-16T02:31:25.856Z,15.30
2022-10-16T02:36:28.512Z,15.20
2022-10-16T02:41:30.330Z,15.10
2022-10-16T02:46:31.984Z,15.10
2022-10-16T02:51:33.618Z,15.10
2022-10-16T02:56:35.282Z,14.90
2022-10-16T03:01:37.107Z,14.90
2022-10-16T03:06:38.893Z,14.80
2022-10-16T03:11:40.539Z,14.90
2022-10-16T03:16:42.213Z,14.90
2022-10-16T03:21:43.969Z,14.80
2022-10-16T03:26:45.624Z,14.90
2022-10-16T03:31:49.325Z,14.90
2022-10-16T03:36:51.118Z,14.90
2022-10-16T03:41:52.738Z,14.90
2022-10-16T03:46:54.389Z,14.90
2022-10-16T03:51:56.012Z,15.00
2022-10-16T03:56:57.677Z,15.00
2022-10-16T04:01:59.357Z,15.10
2022-10-16T04:07:01.001Z,15.10
2022-10-16T04:12:02.692Z,15.10
2022-10-16T04:17:04.391Z,15.10
2022-10-16T04:22:06.042Z,15.10
2022-10-16T04:27:07.680Z,15.00
2022-10-16T04:32:10.352Z,15.00
2022-10-16T04:37:11.978Z,14.90
2022-10-16T04:42:13.629Z,14.80
2022-10-16T04:47:15.335Z,14.90
2022-10-16T04:52:17.206Z,14.90
2022-10-16T04:57:18.900Z,14.90
2022-10-16T05:02:20.772Z,15.00
2022-10-16T05:07:22.460Z,15.00
2022-10-16T05:12:24.120Z,15.00
2022-10-16T05:17:26.886Z,15.00
2022-10-16T05:22:28.817Z,15.10
2022-10-16T05:27:30.494Z,15.10
2022-10-16T05:32:32.150Z,15.10
2022-10-16T05:37:33.848Z,15.10
2022-10-16T05:42:35.460Z,15.10
2022-10-16T05:47:37.544Z,15.20
2022-10-16T05:52:39.175Z,15.30
2022-10-16T05:57:40.856Z,15.40
2022-10-16T06:02:42.544Z,15.50
2022-10-16T06:07:44.193Z,15.60
2022-10-16T06:12:45.812Z,15.60
2022-10-16T06:17:47.408Z,15.70
2022-10-16T06:22:49.048Z,15.80
2022-10-16T06:27:50.763Z,15.90
2022-10-16T06:32:52.524Z,16.00
2022-10-16T06:37:54.784Z,16.10
2022-10-16T06:42:56.825Z,16.10
2022-10-16T06:47:58.567Z,16.20
2022-10-16T06:53:00.192Z,16.20
2022-10-16T06:58:01.838Z,16.30
2022-10-16T07:03:03.506Z,16.40
2022-10-16T07:08:06.262Z,16.50
2022-10-16T07:13:08.575Z,16.50
2022-10-16T07:18:10.321Z,16.70
2022-10-16T07:23:12.196Z,16.90
2022-10-16T07:28:13.851Z,16.80
2022-10-16T07:33:15.761Z,17.10
2022-10-16T07:38:17.545Z,17.20
2022-10-16T07:43:19.174Z,17.20
2022-10-16T07:48:20.894Z,17.20
2022-10-16T07:53:26.213Z,17.40
2022-10-16T07:58:29.541Z,17.50
2022-10-16T08:03:33.276Z,17.70
2022-10-16T08:08:35.052Z,18.00
2022-10-16T08:13:36.917Z,18.20
2022-10-16T08:18:40.338Z,18.50
2022-10-16T08:23:42.057Z,18.80
2022-10-16T08:28:43.728Z,19.10
2022-10-16T08:33:47.749Z,19.30
2022-10-16T08:38:51.386Z,19.30
2022-10-16T08:44:19.350Z,19.40
2022-10-16T08:49:21.236Z,19.60
2022-10-16T08:54:46.702Z,20.00
2022-10-16T08:59:48.582Z,19.70
2022-10-16T09:05:09.872Z,19.90
2022-10-16T09:10:20.244Z,20.20
2022-10-16T09:15:41.469Z,20.40
2022-10-16T09:21:20.734Z,20.60
2022-10-16T09:31:25.631Z,20.30
2022-10-16T09:36:30.103Z,20.30
2022-10-16T09:41:35.173Z,20.30
2022-10-16T09:46:39.125Z,20.40
2022-10-16T09:51:40.899Z,20.50
2022-10-16T09:56:43.227Z,20.70
2022-10-16T10:01:49.188Z,20.70
2022-10-16T10:06:56.351Z,21.10
2022-10-16T10:12:00.216Z,20.80
2022-10-16T10:17:07.864Z,20.80
2022-10-16T10:22:29.948Z,21.20
2022-10-16T10:27:40.648Z,21.70
2022-10-16T10:33:10.654Z,21.80
2022-10-16T10:38:44.106Z,21.60
2022-10-16T10:44:05.477Z,21.10
2022-10-16T10:49:21.485Z,21.00
2022-10-16T10:54:45.004Z,20.90
2022-10-16T11:00:07.687Z,20.90
2022-10-16T11:05:35.422Z,21.00
2022-10-16T11:10:46.581Z,21.00
2022-10-16T11:15:52.559Z,21.00
2022-10-16T11:21:11.371Z,21.20
2022-10-16T11:26:25.102Z,21.30
2022-10-16T11:31:50.348Z,21.20
2022-10-16T11:37:15.617Z,21.40
2022-10-16T11:42:38.984Z,21.50
2022-10-16T11:48:12.149Z,21.50
2022-10-16T11:53:22.682Z,21.50
2022-10-16T11:58:36.648Z,21.40
2022-10-16T12:03:51.425Z,21.30
2022-10-16T12:08:54.486Z,21.30
2022-10-16T12:14:20.882Z,21.10
2022-10-16T12:19:24.415Z,20.90
2022-10-16T12:24:43.863Z,20.80
2022-10-16T12:29:45.725Z,20.40
2022-10-16T12:34:48.888Z,20.20
2022-10-16T12:39:52.269Z,20.10
2022-10-16T12:44:55.327Z,20.10
2022-10-16T12:49:57.269Z,20.20
2022-10-16T12:55:01.551Z,20.20
2022-10-16T13:00:09.349Z,20.20
2022-10-16T13:05:19.640Z,20.40
2022-10-16T13:10:21.265Z,20.70
2022-10-16T13:16:01.494Z,20.70
2022-10-16T13:21:21.030Z,20.80
2022-10-16T13:26:40.911Z,20.50
2022-10-16T13:31:45.048Z,20.70
2022-10-16T13:36:51.293Z,20.80
2022-10-16T13:42:09.078Z,20.90
2022-10-16T13:47:26.325Z,21.10
2022-10-16T13:52:28.644Z,21.30
2022-10-16T13:57:30.751Z,21.50
2022-10-16T14:02:40.079Z,21.30
2022-10-16T14:07:43.058Z,21.50
2022-10-16T14:12:44.968Z,21.80
2022-10-16T14:17:51.193Z,21.70
2022-10-16T14:23:03.938Z,21.60
2022-10-16T14:28:16.092Z,21.40
2022-10-16T14:33:40.267Z,21.10
2022-10-16T14:38:48.819Z,21.10
2022-10-16T14:44:04.395Z,21.30
2022-10-16T14:49:12.071Z,21.10
2022-10-16T14:54:16.112Z,21.10
2022-10-16T14:59:20.125Z,21.10
2022-10-16T15:04:21.905Z,20.90
2022-10-16T15:09:23.562Z,20.70
2022-10-16T15:14:25.305Z,20.50
2022-10-16T15:19:26.979Z,20.70
2022-10-16T15:24:28.656Z,20.60
2022-10-16T15:29:30.477Z,20.30
2022-10-16T15:34:32.139Z,20.00
2022-10-16T15:39:37.670Z,19.70
2022-10-16T15:44:42.117Z,19.80
2022-10-16T15:49:43.790Z,19.90
2022-10-16T15:54:48.192Z,19.90
2022-10-16T15:59:52.152Z,19.90
2022-10-16T16:04:53.809Z,19.90
2022-10-16T16:09:55.530Z,19.80
2022-10-16T16:14:59.677Z,19.50
2022-10-16T16:20:05.577Z,19.20
2022-10-16T16:25:07.542Z,18.90
2022-10-16T16:30:16.860Z,18.70
2022-10-16T16:35:21.419Z,18.60
2022-10-16T16:40:23.090Z,18.40
2022-10-16T16:45:29.507Z,18.30
2022-10-16T16:50:35.600Z,18.40
2022-10-16T16:55:37.298Z,18.30
2022-10-16T17:00:56.417Z,18.30
2022-10-16T17:06:08.169Z,18.30
2022-10-16T17:11:16.589Z,18.30
2022-10-16T17:16:19.528Z,18.40
2022-10-16T17:21:21.651Z,18.40
2022-10-16T17:26:23.964Z,18.40
2022-10-16T17:31:31.945Z,18.50
2022-10-16T17:36:35.701Z,18.40
2022-10-16T17:41:37.905Z,18.30
2022-10-16T17:46:41.146Z,18.30
2022-10-16T17:51:44.111Z,18.20
2022-10-16T17:56:47.634Z,18.20
2022-10-16T18:01:49.345Z,18.00
2022-10-16T18:06:51.104Z,17.80
2022-10-16T18:11:59.789Z,17.80
2022-10-16T18:17:01.563Z,17.70
2022-10-16T18:22:03.203Z,17.70
2022-10-16T18:27:04.857Z,17.70
2022-10-16T18:32:06.494Z,17.70
2022-10-16T18:37:08.265Z,17.80
2022-10-16T18:42:09.892Z,17.80
2022-10-16T18:47:11.976Z,17.70
2022-10-16T18:52:13.626Z,17.80
2022-10-16T18:57:15.237Z,17.70
2022-10-16T19:02:16.903Z,17.70
2022-10-16T19:07:18.506Z,17.70
2022-10-16T19:12:20.196Z,17.70
2022-10-16T19:17:21.817Z,17.70
2022-10-16T19:22:49.293Z,17.60
2022-10-16T19:27:52.227Z,17.60
2022-10-16T19:32:53.912Z,17.60
2022-10-16T19:37:55.537Z,17.60
2022-10-16T19:42:57.188Z,17.60
2022-10-16T19:47:58.875Z,17.50
2022-10-16T19:53:00.510Z,17.50
2022-10-16T19:58:02.149Z,17.50
2022-10-16T20:03:03.869Z,17.50
2022-10-16T20:08:05.958Z,17.50
2022-10-16T20:13:08.296Z,17.40
2022-10-16T20:18:10.009Z,17.40
2022-10-16T20:23:11.907Z,17.30
2022-10-16T20:28:18.281Z,17.20
2022-10-16T20:33:19.930Z,17.20
2022-10-16T20:38:22.491Z,17.10
2022-10-16T20:43:24.386Z,17.10
2022-10-16T20:48:26.204Z,17.10
2022-10-16T20:53:28.022Z,17.00
2022-10-16T20:58:29.676Z,17.00
2022-10-16T21:03:31.574Z,16.90
2022-10-16T21:08:39.739Z,16.90
2022-10-16T21:13:41.830Z,16.90
2022-10-16T21:18:44.727Z,16.90
2022-10-16T21:23:47.214Z,16.90
2022-10-16T21:28:49.127Z,17.00
2022-10-16T21:33:51.689Z,17.00
2022-10-16T21:38:53.763Z,17.00
2022-10-16T21:43:57.001Z,17.00
2022-10-16T21:49:03.691Z,17.00
2022-10-16T21:54:09.802Z,17.00
2022-10-16T21:59:14.798Z,17.00
2022-10-16T22:04:17.004Z,16.90
2022-10-16T22:09:19.438Z,16.90
2022-10-16T22:14:22.023Z,16.90
2022-10-16T22:19:23.801Z,16.80
2022-10-16T22:24:25.565Z,16.80
2022-10-16T22:29:27.338Z,16.80
2022-10-16T22:34:29.542Z,16.80
2022-10-16T22:39:31.246Z,16.80
2022-10-16T22:44:32.865Z,16.70
2022-10-16T22:49:34.475Z,16.70
2022-10-16T22:54:36.121Z,16.50
2022-10-16T22:59:37.767Z,16.40
2022-10-16T23:04:39.388Z,16.20
2022-10-16T23:09:41.026Z,16.10
2022-10-16T23:14:42.745Z,16.00
2022-10-16T23:19:44.455Z,15.90
2022-10-16T23:24:46.114Z,15.90
2022-10-16T23:29:47.702Z,15.80
2022-10-16T23:34:49.358Z,15.70
2022-10-16T23:39:51.842Z,15.60
2022-10-16T23:44:53.461Z,15.60
2022-10-16T23:49:55.085Z,15.50
2022-10-16T23:54:57.247Z,15.40
2022-10-16T23:59:58.909Z,15.40
